Time;durP1;ratioP1;P1;durP2;ratioP2;P2;SDS_P1;SDS_P2;PMS_P1;PMS_P2;Temp;Humidity;BMP_temperature;BMP_pressure;BME280_temperature;BME280_humidity;BME280_pressure;Samples;Min_cycle;Max_cycle;Signal;HPM_P1;HPM_P2
2022/12/05 00:01:38;;;;;;;36.83;21.82;;;;;;;1.70;82.27;102267.05;1770626;78;21077;-85
2022/12/05 00:04:07;;;;;;;34.23;21.53;;;;;;;1.69;82.29;102267.84;1777460;78;21078;-85
2022/12/05 00:06:34;;;;;;;32.48;20.92;;;;;;;1.68;82.35;102274.20;1790577;78;21053;-85
2022/12/05 00:09:01;;;;;;;32.60;20.70;;;;;;;1.66;82.32;102266.67;1769705;78;21083;-80
2022/12/05 00:11:30;;;;;;;32.38;20.48;;;;;;;1.64;82.33;102255.25;1772802;78;21093;-80
2022/12/05 00:13:58;;;;;;;29.15;19.07;;;;;;;1.63;82.30;102254.33;1753440;80;21046;-81
2022/12/05 00:16:27;;;;;;;34.35;20.43;;;;;;;1.61;82.26;102256.28;1753916;80;21127;-80
2022/12/05 00:18:54;;;;;;;31.48;19.60;;;;;;;1.57;82.22;102261.59;1759357;80;21763;-82
2022/12/05 00:21:32;;;;;;;29.30;17.87;;;;;;;1.58;82.32;102259.53;1763674;80;21074;-83
2022/12/05 00:23:59;;;;;;;28.75;19.40;;;;;;;1.61;82.35;102256.28;1766043;80;21052;-83
2022/12/05 00:26:26;;;;;;;25.97;18.00;;;;;;;1.61;82.27;102254.59;1757318;80;21036;-82
2022/12/05 00:28:53;;;;;;;27.75;18.87;;;;;;;1.60;82.33;102250.59;1763630;80;21049;-82
2022/12/05 00:31:22;;;;;;;25.92;17.50;;;;;;;1.63;82.28;102245.23;1754717;80;23062;-84
2022/12/05 00:33:49;;;;;;;27.52;17.82;;;;;;;1.61;82.22;102242.91;1769625;80;21066;-85
2022/12/05 00:36:20;;;;;;;26.68;18.12;;;;;;;1.59;82.16;102240.57;1766268;80;21033;-81
2022/12/05 00:38:48;;;;;;;27.20;17.87;;;;;;;1.58;82.21;102232.65;1753399;80;21066;-81
2022/12/05 00:41:22;;;;;;;26.95;17.00;;;;;;;1.59;82.26;102235.38;1757943;80;21071;-81
2022/12/05 00:43:49;;;;;;;25.85;17.07;;;;;;;1.59;82.23;102240.57;1758326;80;21889;-85
2022/12/05 00:46:20;;;;;;;26.12;17.65;;;;;;;1.60;82.25;102242.80;1757722;80;21028;-85
2022/12/05 00:48:47;;;;;;;27.77;18.25;;;;;;;1.64;82.35;102237.09;1747439;80;21058;-81
2022/12/05 00:51:16;;;;;;;26.82;17.23;;;;;;;1.64;82.24;102240.98;1748378;80;21078;-85
2022/12/05 00:53:43;;;;;;;29.07;17.15;;;;;;;1.66;82.32;102237.72;1750509;80;21349;-85
2022/12/05 00:56:17;;;;;;;28.83;18.17;;;;;;;1.69;82.33;102245.78;1748353;81;22562;-85
2022/12/05 00:58:43;;;;;;;30.82;19.27;;;;;;;1.71;82.30;102244.63;1750024;80;20967;-85
2022/12/05 01:01:20;;;;;;;30.85;19.70;;;;;;;1.75;82.34;102239.80;1744358;80;21041;-85
2022/12/05 01:03:47;;;;;;;34.03;20.62;;;;;;;1.79;82.36;102241.38;1755217;80;21098;-81
2022/12/05 01:06:14;;;;;;;32.03;21.17;;;;;;;1.80;82.25;102244.47;1744545;80;21070;-85
2022/12/05 01:08:41;;;;;;;34.70;21.85;;;;;;;1.80;82.28;102240.17;1744161;80;22593;-81
2022/12/05 01:11:08;;;;;;;33.80;20.37;;;;;;;1.80;82.26;102241.47;1711941;81;21146;-81
2022/12/05 01:13:35;;;;;;;35.45;22.22;;;;;;;1.81;82.23;102238.52;1724609;81;22158;-81
2022/12/05 01:16:01;;;;;;;37.38;22.65;;;;;;;1.78;82.13;102232.65;1726050;81;21070;-84
2022/12/05 01:18:28;;;;;;;40.12;22.95;;;;;;;1.78;82.19;102233.05;1746155;81;21432;-84
2022/12/05 01:20:55;;;;;;;34.60;22.50;;;;;;;1.81;82.32;102233.32;1741434;81;21798;-81
2022/12/05 01:23:22;;;;;;;36.68;23.80;;;;;;;1.83;82.22;102234.35;1752044;81;21110;-81
2022/12/05 01:25:50;;;;;;;33.40;22.58;;;;;;;1.83;82.20;102236.95;1753310;80;21107;-84
2022/12/05 01:28:17;;;;;;;38.00;23.52;;;;;;;1.82;82.14;102241.61;1713275;81;21066;-85
2022/12/05 01:30:46;;;;;;;36.00;23.05;;;;;;;1.84;82.17;102243.94;1713785;81;21586;-85
2022/12/05 01:33:13;;;;;;;34.55;22.17;;;;;;;1.85;82.15;102241.88;1731334;81;21792;-81
2022/12/05 01:35:40;;;;;;;35.95;20.25;;;;;;;1.85;82.10;102238.88;1719594;81;21674;-81
2022/12/05 01:38:08;;;;;;;33.30;21.17;;;;;;;1.86;82.09;102234.59;1775098;80;21541;-81
2022/12/05 01:40:35;;;;;;;34.65;21.33;;;;;;;1.87;82.11;102229.93;1738498;81;21059;-84
2022/12/05 01:43:02;;;;;;;36.03;23.67;;;;;;;1.88;82.14;102236.55;1774621;80;21642;-80
2022/12/05 01:45:38;;;;;;;34.23;21.12;;;;;;;1.92;82.16;102236.42;1764119;80;21744;-80
2022/12/05 01:48:15;;;;;;;32.25;20.45;;;;;;;1.94;82.10;102234.46;1742890;80;21092;-80
2022/12/05 01:50:42;;;;;;;33.50;21.70;;;;;;;1.93;82.00;102238.22;1718864;81;21128;-84
2022/12/05 01:53:09;;;;;;;27.82;19.77;;;;;;;1.88;81.84;102242.15;1703076;83;21082;-84
2022/12/05 01:55:36;;;;;;;30.57;19.48;;;;;;;1.88;81.97;102241.75;1711755;82;21090;-83
2022/12/05 01:58:03;;;;;;;30.68;19.12;;;;;;;1.88;81.90;102240.84;1723042;81;21752;-84
2022/12/05 02:00:29;;;;;;;25.62;17.42;;;;;;;1.86;81.87;102243.31;1729942;81;21993;-82
2022/12/05 02:03:00;;;;;;;28.30;18.15;;;;;;;1.87;81.88;102241.61;1722598;81;21062;-86
2022/12/05 02:05:34;;;;;;;27.67;18.48;;;;;;;1.87;81.87;102239.02;1721580;81;21067;-82
2022/12/05 02:08:04;;;;;;;28.35;18.90;;;;;;;1.88;81.85;102239.16;1729887;81;21572;-81
2022/12/05 02:10:42;;;;;;;30.97;20.10;;;;;;;1.87;81.83;102244.20;1713048;81;22605;-85
2022/12/05 02:13:47;;;;;;;30.23;20.27;;;;;;;1.84;81.74;102240.05;1722190;81;21059;-81
2022/12/05 02:16:25;;;;;;;30.48;19.25;;;;;;;1.79;81.70;102238.38;1723541;81;21404;-81
2022/12/05 02:19:18;;;;;;;29.30;19.00;;;;;;;1.71;81.72;102240.33;1690901;83;21066;-85
2022/12/05 02:21:56;;;;;;;31.10;19.98;;;;;;;1.70;81.82;102230.70;1710129;82;21141;-85
2022/12/05 02:24:34;;;;;;;24.85;17.73;;;;;;;1.67;81.71;102237.33;1722068;81;21776;-85
2022/12/05 02:27:39;;;;;;;28.15;18.17;;;;;;;1.64;81.77;102226.70;1706647;82;21103;-85
2022/12/05 02:30:24;;;;;;;25.45;17.07;;;;;;;1.63;81.78;102232.26;1662720;85;21114;-81
2022/12/05 02:33:14;;;;;;;28.77;19.95;;;;;;;1.64;81.91;102230.59;1670890;84;21109;-85
2022/12/05 02:36:04;;;;;;;32.60;20.30;;;;;;;1.64;81.87;102234.49;1672079;83;21564;-84
2022/12/05 02:38:48;;;;;;;33.33;21.57;;;;;;;1.63;81.91;102229.67;1719465;83;21814;-85
2022/12/05 02:41:32;;;;;;;30.37;21.15;;;;;;;1.64;81.93;102226.30;1712236;83;21089;-85
2022/12/05 02:44:03;;;;;;;;;;;;;;;1.59;81.83;102226.30;1704858;82;21467;-80
2022/12/05 02:46:32;;;;;;;28.95;19.20;;;;;;;1.58;81.90;102227.45;1710872;82;21468;-85
2022/12/05 02:49:02;;;;;;;28.57;18.70;;;;;;;1.59;81.92;102227.59;1740553;80;21079;-86
2022/12/05 02:51:32;;;;;;;29.37;19.37;;;;;;;1.58;81.88;102224.86;1755488;80;21808;-86
2022/12/05 02:54:01;;;;;;;28.42;18.62;;;;;;;1.58;81.91;102232.28;1746030;80;21576;-82
2022/12/05 02:56:28;;;;;;;28.60;18.82;;;;;;;1.56;81.95;102229.95;1720432;81;21054;-80
2022/12/05 02:58:55;;;;;;;29.80;19.82;;;;;;;1.57;82.02;102218.77;1755856;80;21046;-85
2022/12/05 03:01:25;;;;;;;30.17;19.62;;;;;;;1.59;82.02;102210.73;1756520;80;21047;-82
2022/12/05 03:03:52;;;;;;;29.75;19.20;;;;;;;1.60;81.97;102207.77;1699290;82;21783;-87
2022/12/05 03:06:29;;;;;;;26.55;17.92;;;;;;;1.57;81.88;102200.61;1703089;82;21150;-80
2022/12/05 03:09:00;;;;;;;25.90;17.17;;;;;;;1.57;81.90;102196.71;1752286;81;21453;-84
2022/12/05 03:11:34;;;;;;;25.25;16.57;;;;;;;1.57;81.84;102198.41;1733162;80;21192;-80
2022/12/05 03:14:01;;;;;;;26.42;16.45;;;;;;;1.51;81.72;102196.20;1755655;80;21051;-81
2022/12/05 03:16:45;;;;;;;27.00;16.95;;;;;;;1.47;81.78;102195.03;1748398;80;22517;-84
2022/12/05 03:19:18;;;;;;;;;;;;;;;1.46;81.83;102189.71;1755385;80;21185;-84
2022/12/05 03:22:02;;;;;;;25.75;17.80;;;;;;;1.45;81.87;102195.30;1758071;80;20980;-81
2022/12/05 03:24:28;;;;;;;31.70;18.55;;;;;;;1.47;81.90;102192.84;1760276;80;21742;-86
2022/12/05 03:27:00;;;;;;;28.17;17.55;;;;;;;1.47;81.93;102188.95;1754689;80;21066;-81
2022/12/05 03:30:00;;;;;;;26.37;18.42;;;;;;;1.49;82.02;102193.48;1755264;80;21747;-81
2022/12/05 03:32:51;;;;;;;26.48;17.75;;;;;;;1.53;82.07;102192.95;1756299;80;20978;-82
2022/12/05 03:35:37;;;;;;;32.70;20.32;;;;;;;1.57;82.06;102196.71;1755976;80;21027;-81
2022/12/05 03:38:32;;;;;;;29.75;20.43;;;;;;;1.61;82.08;102188.80;1742309;80;20995;-81
2022/12/05 03:41:10;;;;;;;30.72;19.25;;;;;;;1.61;81.97;102192.70;1750707;80;21011;-81
2022/12/05 03:43:49;;;;;;;28.38;19.98;;;;;;;1.56;81.84;102192.33;1747361;80;21744;-85
2022/12/05 03:46:42;;;;;;;31.70;19.48;;;;;;;1.55;81.90;102184.00;1757605;80;21072;-85
2022/12/05 03:49:23;;;;;;;30.77;20.30;;;;;;;1.59;82.05;102182.58;1753052;80;21054;-85
2022/12/05 03:51:57;;;;;;;29.92;20.37;;;;;;;1.61;81.99;102181.91;1752584;80;21047;-85
2022/12/05 03:54:27;;;;;;;34.53;21.12;;;;;;;1.63;81.98;102182.95;1758353;80;21040;-85
2022/12/05 03:57:01;;;;;;;30.68;21.20;;;;;;;1.65;82.05;102168.44;1753770;80;21731;-85
2022/12/05 03:59:36;;;;;;;34.58;23.25;;;;;;;1.65;81.87;102175.30;1787973;78;21440;-86
2022/12/05 04:02:08;;;;;;;34.88;22.65;;;;;;;1.60;81.76;102174.92;1774595;78;21062;-86
2022/12/05 04:04:43;;;;;;;35.57;23.50;;;;;;;1.57;81.75;102169.86;1774119;78;21115;-85
2022/12/05 04:07:10;;;;;;;33.95;22.50;;;;;;;1.52;81.80;102166.86;1759821;78;21064;-82
2022/12/05 04:09:51;;;;;;;38.20;22.80;;;;;;;1.41;81.74;102150.78;1767737;78;21751;-86
2022/12/05 04:12:22;;;;;;;34.03;22.52;;;;;;;1.51;81.89;102169.86;1778022;78;21022;-83
2022/12/05 04:14:56;;;;;;;37.20;22.40;;;;;;;1.52;81.92;102174.65;1775362;78;21021;-83
2022/12/05 04:17:48;;;;;;;33.53;22.32;;;;;;;1.51;81.88;102171.16;1786902;78;21073;-86
2022/12/05 04:23:22;;;;;;;31.25;19.82;;;;;;;1.50;81.79;102178.80;1775413;78;22004;-83
2022/12/05 04:26:23;;;;;;;31.02;21.87;;;;;;;1.48;81.85;102177.77;1766839;78;21970;-83
2022/12/05 04:28:59;;;;;;;27.77;19.55;;;;;;;1.47;81.83;102176.88;1763283;80;21065;-82
2022/12/05 04:31:30;;;;;;;28.20;18.65;;;;;;;1.46;81.91;102173.74;1778214;78;22097;-83
2022/12/05 04:34:06;;;;;;;28.32;18.92;;;;;;;1.50;81.94;102170.66;1740473;81;21348;-82
2022/12/05 04:36:54;;;;;;;30.43;20.25;;;;;;;1.48;81.88;102164.43;1733538;78;21789;-83
2022/12/05 04:39:42;;;;;;;31.12;21.17;;;;;;;1.50;81.96;102173.25;1765167;80;21462;-85
2022/12/05 04:42:12;;;;;;;31.10;20.85;;;;;;;1.51;82.01;102163.77;1781921;78;21121;-86
2022/12/05 04:44:52;;;;;;;33.48;21.30;;;;;;;1.52;81.95;102165.20;1712923;82;21516;-82
2022/12/05 04:47:21;;;;;;;33.67;19.12;;;;;;;1.53;81.96;102164.41;1749666;80;21668;-81
2022/12/05 04:49:47;;;;;;;30.40;19.87;;;;;;;1.54;81.92;102170.52;1758619;80;22595;-85
2022/12/05 04:52:14;;;;;;;30.52;18.90;;;;;;;1.55;81.98;102165.84;1760914;78;21049;-84
2022/12/05 04:55:01;;;;;;;30.72;18.37;;;;;;;1.55;81.86;102160.64;1746752;80;21068;-86
2022/12/05 04:57:32;;;;;;;30.08;18.20;;;;;;;1.53;81.83;102164.80;1761409;78;21074;-81
2022/12/05 04:59:59;;;;;;;25.95;18.57;;;;;;;1.55;81.86;102163.23;1765826;78;21127;-81
2022/12/05 05:03:01;;;;;;;29.77;18.10;;;;;;;1.60;81.96;102168.44;1735257;80;21740;-82
2022/12/05 05:05:28;;;;;;;30.30;17.77;;;;;;;1.60;81.83;102166.23;1784587;78;21644;-83
2022/12/05 05:07:55;;;;;;;31.40;19.87;;;;;;;1.61;81.89;102162.45;1789350;78;21113;-84
2022/12/05 05:10:38;;;;;;;34.18;21.02;;;;;;;1.63;81.85;102170.37;1770082;80;21074;-84
2022/12/05 05:13:05;;;;;;;31.70;21.40;;;;;;;1.62;81.79;102170.77;1759582;78;21337;-84
2022/12/05 05:15:32;;;;;;;30.08;20.00;;;;;;;1.62;81.79;102170.77;1774667;78;21319;-78
2022/12/05 05:17:58;;;;;;;26.40;18.00;;;;;;;1.61;81.74;102158.55;1765885;78;21105;-79
2022/12/05 05:20:26;;;;;;;31.12;20.12;;;;;;;1.57;81.58;102162.98;1776165;78;21069;-78
2022/12/05 05:22:55;;;;;;;27.52;18.15;;;;;;;1.52;81.58;102158.71;1765804;78;21050;-79
2022/12/05 05:25:21;;;;;;;27.82;18.85;;;;;;;1.46;81.53;102161.17;1772328;78;21047;-81
2022/12/05 05:27:53;;;;;;;24.23;17.45;;;;;;;1.45;81.67;102163.27;1786709;78;22943;-82
2022/12/05 05:30:19;;;;;;;26.37;16.90;;;;;;;1.42;81.62;102157.41;1773648;78;21391;-83
2022/12/05 05:32:46;;;;;;;28.52;18.55;;;;;;;1.38;81.64;102157.93;1762114;78;21113;-78
2022/12/05 05:35:13;;;;;;;27.52;17.92;;;;;;;1.42;81.77;102161.69;1767874;78;21098;-81
2022/12/05 05:37:40;;;;;;;28.62;18.55;;;;;;;1.41;81.73;102155.97;1765019;78;22020;-86
2022/12/05 05:40:09;;;;;;;27.77;18.37;;;;;;;1.40;81.74;102151.18;1721386;81;21744;-81
2022/12/05 05:42:35;;;;;;;27.60;18.95;;;;;;;1.41;81.74;102157.27;1767149;78;21063;-85
2022/12/05 05:45:03;;;;;;;25.60;17.92;;;;;;;1.43;81.84;102149.25;1769849;78;21047;-82
2022/12/05 05:47:29;;;;;;;34.03;21.65;;;;;;;1.47;81.90;102157.81;1776941;78;21077;-85
2022/12/05 05:49:56;;;;;;;34.25;22.95;;;;;;;1.51;81.99;102158.18;1755425;80;21046;-81
2022/12/05 05:52:23;;;;;;;36.10;22.32;;;;;;;1.56;81.97;102155.98;1715901;81;21779;-78
2022/12/05 05:54:50;;;;;;;32.35;22.95;;;;;;;1.58;81.91;102154.79;1764692;80;21066;-86
2022/12/05 05:57:17;;;;;;;36.83;24.23;;;;;;;1.59;81.87;102156.63;1750303;80;21049;-85
2022/12/05 05:59:45;;;;;;;39.45;23.47;;;;;;;1.62;81.87;102160.39;1753650;80;21515;-87
2022/12/05 06:02:13;;;;;;;37.63;22.48;;;;;;;1.60;81.76;102159.35;1727658;80;21065;-87
2022/12/05 06:04:40;;;;;;;35.28;22.22;;;;;;;1.60;81.74;102162.34;1710257;81;21819;-81
2022/12/05 06:07:06;;;;;;;33.55;22.62;;;;;;;1.59;81.73;102165.31;1723966;81;21559;-83
2022/12/05 06:09:33;;;;;;;36.63;21.37;;;;;;;1.59;81.74;102164.01;1728019;81;21049;-83
2022/12/05 06:12:00;;;;;;;31.57;19.82;;;;;;;1.58;81.71;102170.00;1759117;80;21131;-82
2022/12/05 06:14:26;;;;;;;30.32;20.05;;;;;;;1.58;81.75;102163.51;1750922;80;21520;-84
2022/12/05 06:16:53;;;;;;;29.80;19.75;;;;;;;1.58;81.72;102162.21;1758927;80;23029;-82
2022/12/05 06:19:21;;;;;;;34.15;21.20;;;;;;;1.58;81.78;102163.88;1761401;80;21140;-88
2022/12/05 06:21:51;;;;;;;30.50;19.80;;;;;;;1.59;81.74;102165.31;1756224;80;21109;-86
2022/12/05 06:24:17;;;;;;;29.15;17.95;;;;;;;1.59;81.76;102167.91;1757602;80;21032;-86
2022/12/05 06:26:54;;;;;;;30.80;19.82;;;;;;;1.58;81.71;102169.06;1751556;81;22031;-86
2022/12/05 06:29:24;;;;;;;28.60;19.27;;;;;;;1.60;81.76;102168.84;1757036;80;20978;-86
2022/12/05 06:31:51;;;;;;;28.32;18.57;;;;;;;1.61;81.73;102161.15;1759763;80;22173;-86
2022/12/05 06:34:18;;;;;;;28.65;18.57;;;;;;;1.60;81.65;102168.44;1750772;81;21437;-86
2022/12/05 06:36:45;;;;;;;27.15;18.48;;;;;;;1.55;81.54;102160.25;1753512;80;21075;-85
2022/12/05 06:39:11;;;;;;;29.07;18.37;;;;;;;1.55;81.65;102160.64;1756337;80;21075;-85
2022/12/05 06:41:38;;;;;;;31.73;20.77;;;;;;;1.57;81.64;102163.38;1757315;80;21729;-85
2022/12/05 06:44:05;;;;;;;35.25;21.40;;;;;;;1.58;81.71;102168.70;1727469;80;21066;-81
2022/12/05 06:46:32;;;;;;;40.55;22.87;;;;;;;1.57;81.69;102169.47;1751186;81;21072;-81
2022/12/05 06:48:59;;;;;;;33.92;20.80;;;;;;;1.57;81.76;102172.46;1754405;80;21656;-81
2022/12/05 06:51:26;;;;;;;33.92;19.62;;;;;;;1.58;81.74;102172.59;1767321;80;21079;-81
2022/12/05 06:53:52;;;;;;;28.40;19.27;;;;;;;1.61;81.77;102170.63;1749607;80;22468;-85
2022/12/05 06:56:19;;;;;;;27.00;18.52;;;;;;;1.61;81.73;102178.02;1725340;80;21295;-85
2022/12/05 06:58:51;;;;;;;29.05;18.55;;;;;;;1.62;81.71;102175.95;1749989;80;21063;-85
2022/12/05 07:04:15;;;;;;;30.25;16.90;;;;;;;1.63;81.72;102172.97;1749157;80;21375;-82
2022/12/05 07:06:43;;;;;;;27.22;17.30;;;;;;;1.62;81.65;102172.06;1748874;80;21792;-82
2022/12/05 07:09:10;;;;;;;27.55;17.30;;;;;;;1.59;81.58;102173.09;1744609;80;21055;-85
2022/12/05 07:11:37;;;;;;;30.77;19.48;;;;;;;1.55;81.64;102174.52;1752605;80;21065;-82
2022/12/05 07:14:04;;;;;;;32.23;18.25;;;;;;;1.55;81.71;102175.81;1764251;80;21023;-85
2022/12/05 07:16:31;;;;;;;28.30;19.10;;;;;;;1.56;81.75;102176.75;1731840;82;21074;-82
2022/12/05 07:18:57;;;;;;;27.70;18.73;;;;;;;1.54;81.64;102177.02;1752000;80;21761;-82
2022/12/05 07:21:24;;;;;;;29.95;20.12;;;;;;;1.51;81.63;102182.83;1748748;80;21761;-82
2022/12/05 07:23:51;;;;;;;27.27;18.20;;;;;;;1.49;81.65;102183.49;1750507;80;21927;-81
2022/12/05 07:26:21;;;;;;;32.35;18.98;;;;;;;1.49;81.71;102184.80;1749133;80;21017;-82
2022/12/05 07:28:48;;;;;;;32.42;19.25;;;;;;;1.49;81.70;102187.39;1721328;82;21106;-82
2022/12/05 07:31:21;;;;;;;27.90;18.95;;;;;;;1.49;81.72;102177.01;1760086;80;21929;-85
2022/12/05 07:33:48;;;;;;;28.27;18.27;;;;;;;1.51;81.80;102178.04;1749261;80;21072;-85
2022/12/05 07:36:18;;;;;;;29.60;18.60;;;;;;;1.54;81.79;102175.72;1753357;80;21732;-85
2022/12/05 07:38:47;;;;;;;30.55;17.95;;;;;;;1.55;81.81;102168.03;1768774;80;21098;-85
2022/12/05 07:41:18;;;;;;;33.15;19.37;;;;;;;1.58;81.72;102166.11;1717206;83;21070;-85
2022/12/05 07:43:45;;;;;;;27.05;17.50;;;;;;;1.54;81.64;102162.34;1714812;81;22593;-85
2022/12/05 07:46:12;;;;;;;30.20;18.42;;;;;;;1.55;81.68;102165.84;1754291;81;21085;-86
2022/12/05 07:48:40;;;;;;;30.15;19.98;;;;;;;1.55;81.70;102167.13;1735077;81;21094;-87
2022/12/05 07:51:07;;;;;;;30.32;19.15;;;;;;;1.56;81.75;102170.27;1700248;83;21087;-87
2022/12/05 07:53:35;;;;;;;31.68;18.92;;;;;;;1.54;81.64;102161.44;1701675;82;21066;-87
2022/12/05 07:56:04;;;;;;;27.35;19.00;;;;;;;1.49;81.49;102164.93;1728463;82;21037;-83
2022/12/05 07:58:31;;;;;;;29.80;18.27;;;;;;;1.47;81.52;102162.59;1728528;81;21097;-83
2022/12/05 08:01:10;;;;;;;30.57;20.60;;;;;;;1.45;81.57;102163.27;1735085;81;21059;-81
2022/12/05 08:03:37;;;;;;;34.67;20.80;;;;;;;1.43;81.63;102160.93;1736565;81;21075;-85
2022/12/05 08:06:11;;;;;;;31.07;20.37;;;;;;;1.43;81.68;102169.61;1733798;81;21278;-85
2022/12/05 08:08:38;;;;;;;31.48;20.62;;;;;;;1.45;81.71;102166.75;1725007;81;21893;-85
2022/12/05 08:11:13;;;;;;;33.42;21.25;;;;;;;1.46;81.69;102162.47;1730117;81;21055;-83
2022/12/05 08:13:40;;;;;;;33.80;22.40;;;;;;;1.46;81.67;102165.06;1731917;81;21063;-83
2022/12/05 08:16:12;;;;;;;37.93;22.40;;;;;;;1.48;81.69;102164.80;1726031;81;21127;-83
2022/12/05 08:18:39;;;;;;;33.58;22.10;;;;;;;1.49;81.74;102159.73;1735645;81;21073;-83
2022/12/05 08:21:13;;;;;;;31.87;21.23;;;;;;;1.51;81.69;102161.17;1747344;81;21914;-87
2022/12/05 08:23:40;;;;;;;31.37;20.72;;;;;;;1.52;81.66;102164.27;1736868;81;21292;-87
2022/12/05 08:26:17;;;;;;;32.63;21.27;;;;;;;1.54;81.66;102163.64;1739338;81;21461;-87
2022/12/05 08:28:44;;;;;;;34.85;23.35;;;;;;;1.57;81.66;102167.27;1749819;81;22216;-83
2022/12/05 08:31:16;;;;;;;32.80;22.05;;;;;;;1.58;81.59;102167.77;1703687;83;21050;-83
2022/12/05 08:33:43;;;;;;;34.03;22.57;;;;;;;1.60;81.65;102163.24;1728635;82;21786;-83
2022/12/05 08:36:14;;;;;;;34.75;22.82;;;;;;;1.62;81.67;102166.88;1721464;82;21599;-83
2022/12/05 08:38:41;;;;;;;33.25;21.25;;;;;;;1.65;81.66;102167.51;1715161;82;21059;-85
2022/12/05 08:41:11;;;;;;;31.93;20.43;;;;;;;1.70;81.66;102171.00;1723502;82;21122;-85
2022/12/05 08:43:38;;;;;;;34.23;21.68;;;;;;;1.68;81.49;102171.27;1703797;83;21141;-84
2022/12/05 08:46:05;;;;;;;34.33;20.95;;;;;;;1.67;81.45;102171.14;1749779;81;21854;-85
2022/12/05 08:48:32;;;;;;;34.08;21.93;;;;;;;1.63;81.36;102180.34;1738447;81;20977;-85
2022/12/05 08:50:59;;;;;;;36.53;23.10;;;;;;;1.61;81.38;102173.23;1755746;79;21116;-87
2022/12/05 08:53:26;;;;;;;37.83;23.35;;;;;;;1.56;81.34;102176.75;1762484;80;21054;-87
2022/12/05 08:55:53;;;;;;;38.98;23.83;;;;;;;1.54;81.42;102170.13;1765833;80;21084;-87
2022/12/05 08:58:19;;;;;;;40.65;25.60;;;;;;;1.52;81.44;102170.39;1758049;81;22906;-87
2022/12/05 09:00:46;;;;;;;39.50;24.72;;;;;;;1.54;81.54;102166.63;1759421;80;21278;-87
2022/12/05 09:03:13;;;;;;;37.85;22.98;;;;;;;1.55;81.53;102163.23;1777469;80;21085;-87
2022/12/05 09:05:40;;;;;;;38.33;23.57;;;;;;;1.54;81.44;102161.44;1780820;80;21109;-83
2022/12/05 09:08:07;;;;;;;38.38;23.15;;;;;;;1.53;81.44;102163.50;1765211;79;21019;-83
2022/12/05 09:10:34;;;;;;;35.65;24.00;;;;;;;1.54;81.54;102165.34;1774591;79;21250;-83
2022/12/05 09:13:01;;;;;;;37.25;23.42;;;;;;;1.53;81.42;102165.70;1765812;80;21102;-87
2022/12/05 09:15:27;;;;;;;38.05;23.05;;;;;;;1.52;81.48;102156.13;1762827;80;21105;-87
2022/12/05 09:17:54;;;;;;;33.48;21.12;;;;;;;1.58;81.53;102156.09;1765563;80;21088;-83
2022/12/05 09:20:21;;;;;;;34.63;21.77;;;;;;;1.56;81.48;102148.20;1760584;80;21054;-83
2022/12/05 09:22:48;;;;;;;35.85;23.18;;;;;;;1.60;81.50;102149.38;1766101;80;21730;-83
2022/12/05 09:25:33;;;;;;;40.67;24.37;;;;;;;1.62;81.47;102140.02;1774220;80;21038;-83
2022/12/05 09:27:59;;;;;;;40.10;23.47;;;;;;;1.65;81.53;102139.89;1772315;80;21076;-82
2022/12/05 09:30:26;;;;;;;35.03;22.45;;;;;;;1.67;81.41;102135.73;1770091;80;21563;-82
2022/12/05 09:32:54;;;;;;;34.75;22.00;;;;;;;1.69;81.39;102135.83;1762734;80;21514;-86
2022/12/05 09:35:21;;;;;;;40.35;23.42;;;;;;;1.73;81.41;102139.22;1769193;80;21764;-86
2022/12/05 09:37:47;;;;;;;37.65;23.18;;;;;;;1.80;81.44;102138.02;1757339;80;21044;-82
2022/12/05 09:40:17;;;;;;;35.30;22.13;;;;;;;1.82;81.23;102136.09;1747222;80;21075;-82
2022/12/05 09:43:04;;;;;;;38.05;23.83;;;;;;;1.81;81.21;102129.07;1775934;80;21410;-81
2022/12/05 09:45:38;;;;;;;38.48;23.22;;;;;;;1.84;81.20;102120.61;1764902;79;21070;-83
2022/12/05 09:48:10;;;;;;;42.33;25.57;;;;;;;1.82;81.08;102119.58;1767751;80;21776;-83
2022/12/05 09:50:48;;;;;;;43.02;26.10;;;;;;;1.80;81.10;102112.95;1738852;80;21043;-83
2022/12/05 09:53:34;;;;;;;52.00;27.42;;;;;;;1.79;81.12;102107.67;1763363;79;21015;-83
2022/12/05 09:56:11;;;;;;;38.95;23.02;;;;;;;1.80;81.08;102105.58;1763995;80;21050;-83
2022/12/05 09:58:47;;;;;;;40.43;22.95;;;;;;;1.73;80.89;102101.19;1762544;80;21057;-83
2022/12/05 10:01:41;;;;;;;43.13;24.67;;;;;;;1.71;80.93;102104.05;1717616;83;21753;-83
2022/12/05 10:04:22;;;;;;;47.20;26.12;;;;;;;1.73;80.99;102104.18;1745384;80;21036;-83
2022/12/05 10:07:06;;;;;;;40.17;23.92;;;;;;;1.72;81.04;102092.86;1752830;80;21050;-83
2022/12/05 10:09:54;;;;;;;;;;;;;;;1.79;81.09;102089.50;1767014;80;21222;-87
2022/12/05 10:12:56;;;;;;;35.05;21.80;;;;;;;1.79;80.97;102090.80;1751145;80;20623;-85
2022/12/05 10:15:43;;;;;;;38.60;22.13;;;;;;;1.77;80.96;102088.47;1758094;80;21732;-80
2022/12/05 10:18:38;;;;;;;38.60;22.60;;;;;;;1.77;80.87;102078.08;1754130;80;21044;-85
2022/12/05 10:21:11;;;;;;;41.28;23.85;;;;;;;1.77;80.90;102079.38;1756403;80;21042;-88
2022/12/05 10:23:56;;;;;;;34.33;22.27;;;;;;;1.75;80.90;102078.85;1753682;80;21434;-83
2022/12/05 10:26:29;;;;;;;39.63;23.60;;;;;;;1.77;80.88;102078.08;1752753;80;20992;-82
2022/12/05 10:29:29;;;;;;;42.55;25.12;;;;;;;1.81;81.03;102078.45;1771025;80;21183;-83
2022/12/05 10:32:13;;;;;;;42.75;24.85;;;;;;;1.81;80.92;102074.55;1766113;80;21022;-87
2022/12/05 10:34:44;;;;;;;39.80;24.23;;;;;;;1.77;80.77;102075.09;1772380;80;20973;-87
2022/12/05 10:37:19;;;;;;;43.48;26.97;;;;;;;1.77;80.77;102077.69;1752644;80;21016;-87
2022/12/05 10:39:47;;;;;;;39.50;25.68;;;;;;;1.74;80.74;102074.42;1747185;80;21528;-87
2022/12/05 10:42:24;;;;;;;41.48;25.20;;;;;;;1.73;80.68;102075.62;1758079;80;21730;-87
2022/12/05 10:44:56;;;;;;;39.63;25.27;;;;;;;1.70;80.65;102070.17;1743035;80;21051;-87
2022/12/05 10:47:23;;;;;;;37.05;22.95;;;;;;;1.68;80.77;102072.64;1776963;80;21050;-86
2022/12/05 10:49:55;;;;;;;36.33;22.73;;;;;;;1.67;80.65;102064.72;1764107;80;21782;-86
2022/12/05 10:52:22;;;;;;;38.42;23.30;;;;;;;1.66;80.68;102062.52;1761516;80;21092;-86
2022/12/05 10:55:03;;;;;;;38.45;24.23;;;;;;;1.66;80.71;102064.22;1721152;83;22680;-86
2022/12/05 10:57:30;;;;;;;41.83;25.10;;;;;;;1.69;80.80;102061.48;1742447;81;21065;-86
2022/12/05 10:59:57;;;;;;;43.00;25.90;;;;;;;1.70;80.76;102054.20;1756316;80;22104;-86
2022/12/05 11:02:28;;;;;;;42.45;26.00;;;;;;;1.75;80.82;102049.40;1776057;80;21036;-86
2022/12/05 11:04:55;;;;;;;44.77;25.97;;;;;;;1.75;80.83;102052.89;1760436;80;21080;-83
2022/12/05 11:07:29;;;;;;;42.48;26.05;;;;;;;1.78;80.77;102052.62;1773512;80;21918;-82
2022/12/05 11:09:57;;;;;;;42.05;26.15;;;;;;;1.79;80.79;102047.56;1725326;80;21066;-81
2022/12/05 11:12:38;;;;;;;38.28;24.70;;;;;;;1.77;80.65;102042.64;1772087;80;21198;-85
2022/12/05 11:15:13;;;;;;;46.35;26.85;;;;;;;1.73;80.57;102036.69;1766206;80;21379;-84
2022/12/05 11:17:40;;;;;;;42.95;28.32;;;;;;;1.72;80.58;102040.05;1766287;80;21567;-85
2022/12/05 11:20:21;;;;;;;49.27;30.30;;;;;;;1.66;80.55;102041.76;1764702;80;21489;-81
2022/12/05 11:22:51;;;;;;;43.80;26.57;;;;;;;1.65;80.60;102036.07;1765484;79;21026;-85
2022/12/05 11:25:31;;;;;;;45.05;27.13;;;;;;;1.64;80.63;102034.23;1770875;80;21015;-81
2022/12/05 11:27:59;;;;;;;44.98;29.23;;;;;;;1.63;80.55;102025.02;1740314;80;20975;-81
2022/12/05 11:30:28;;;;;;;42.13;27.02;;;;;;;1.60;80.63;102025.69;1768751;80;21812;-83
2022/12/05 11:33:21;;;;;;;41.77;25.92;;;;;;;1.62;80.68;102026.72;1760171;80;23067;-83
2022/12/05 11:35:50;;;;;;;43.23;26.93;;;;;;;1.64;80.76;102031.64;1767043;80;25272;-87
2022/12/05 11:38:17;;;;;;;44.00;26.10;;;;;;;1.69;80.81;102026.45;1767496;80;21059;-87
2022/12/05 11:40:58;;;;;;;46.02;27.42;;;;;;;1.72;80.75;102023.17;1762557;80;21320;-87
2022/12/05 11:43:48;;;;;;;45.78;27.52;;;;;;;1.73;80.73;102022.02;1770268;80;21122;-87
2022/12/05 11:46:29;;;;;;;42.50;26.42;;;;;;;1.72;80.67;102024.48;1774606;80;21654;-87